createdAt,value
2023-02-04T00:02:49.450Z,50.25
2023-02-04T00:07:54.231Z,41.25
2023-02-04T00:12:59.001Z,37.50
2023-02-04T00:18:04.567Z,39.75
2023-02-04T00:23:09.346Z,47.75
2023-02-04T00:28:14.386Z,65.00
2023-02-04T00:33:19.055Z,67.00
2023-02-04T00:38:24.471Z,55.25
2023-02-04T00:43:29.213Z,57.25
2023-02-04T00:48:35.853Z,54.00
2023-02-04T00:53:40.425Z,56.75
2023-02-04T00:58:45.143Z,53.50
2023-02-04T01:03:49.694Z,45.25
2023-02-04T01:08:54.239Z,49.25
2023-02-04T01:14:00.705Z,54.00
2023-02-04T01:19:05.651Z,50.00
2023-02-04T01:24:11.383Z,44.50
2023-02-04T01:29:36.012Z,39.50
2023-02-04T01:34:40.673Z,47.50
2023-02-04T01:39:45.438Z,59.25
2023-02-04T01:44:50.734Z,57.25
2023-02-04T01:49:56.455Z,56.75
2023-02-04T01:55:01.227Z,53.00
2023-02-04T02:00:09.420Z,53.50
2023-02-04T02:05:22.528Z,55.50
2023-02-04T02:10:28.369Z,54.00
2023-02-04T02:15:33.235Z,52.75
2023-02-04T02:20:38.583Z,54.50
2023-02-04T02:25:43.761Z,46.25
2023-02-04T02:30:50.492Z,50.00
2023-02-04T02:36:00.261Z,47.50
2023-02-04T02:41:17.740Z,49.25
2023-02-04T02:46:22.733Z,45.50
2023-02-04T02:51:27.343Z,47.00
2023-02-04T02:56:33.682Z,40.50
2023-02-04T03:01:38.713Z,44.75
2023-02-04T03:06:44.636Z,43.25
2023-02-04T03:11:50.379Z,47.25
2023-02-04T03:16:56.627Z,40.75
2023-02-04T03:22:02.057Z,34.25
2023-02-04T03:27:07.198Z,43.50
2023-02-04T03:32:12.355Z,53.00
2023-02-04T03:37:17.288Z,49.00
2023-02-04T03:42:22.169Z,44.00
2023-02-04T03:47:26.996Z,39.00
2023-02-04T03:52:31.420Z,45.75
2023-02-04T03:57:35.919Z,33.75
2023-02-04T04:02:41.412Z,34.75
2023-02-04T04:07:46.698Z,41.75
2023-02-04T04:12:51.680Z,42.50
2023-02-04T04:17:56.459Z,35.50
2023-02-04T04:23:01.498Z,43.50
2023-02-04T04:28:06.394Z,36.75
2023-02-04T04:33:11.585Z,38.00
2023-02-04T04:38:16.516Z,36.25
2023-02-04T04:43:22.514Z,38.00
2023-02-04T04:48:27.459Z,29.50
2023-02-04T04:53:32.231Z,40.25
2023-02-04T04:58:37.334Z,32.75
2023-02-04T05:03:42.381Z,34.00
2023-02-04T05:08:47.409Z,35.25
2023-02-04T05:13:51.941Z,35.25
2023-02-04T05:18:56.603Z,29.25
2023-02-04T05:24:01.724Z,30.00
2023-02-04T05:29:08.278Z,37.50
2023-02-04T05:34:13.939Z,27.50
2023-02-04T05:39:18.684Z,30.00
2023-02-04T05:44:25.472Z,28.50
2023-02-04T05:49:31.630Z,27.00
2023-02-04T05:54:36.510Z,32.50
2023-02-04T05:59:41.850Z,28.50
2023-02-04T06:04:47.173Z,23.00
2023-02-04T06:09:54.581Z,25.50
2023-02-04T06:14:59.284Z,28.75
2023-02-04T06:20:05.417Z,26.50
2023-02-04T06:25:10.718Z,36.00
2023-02-04T06:30:17.521Z,22.25
2023-02-04T06:35:22.477Z,24.00
2023-02-04T06:40:27.377Z,25.50
2023-02-04T06:45:35.077Z,26.75
2023-02-04T06:50:40.232Z,23.75
2023-02-04T06:55:45.274Z,27.75
2023-02-04T07:00:50.833Z,36.75
2023-02-04T07:05:55.775Z,28.00
2023-02-04T07:11:00.426Z,23.50
2023-02-04T07:16:05.370Z,21.00
2023-02-04T07:21:09.980Z,33.00
2023-02-04T07:26:14.483Z,28.00
2023-02-04T07:31:19.137Z,21.50
2023-02-04T07:36:23.978Z,25.50
2023-02-04T07:41:28.578Z,30.75
2023-02-04T07:46:33.182Z,23.25
2023-02-04T07:51:37.810Z,28.00
2023-02-04T07:56:42.408Z,30.75
2023-02-04T08:01:51.194Z,25.00
2023-02-04T08:06:55.972Z,27.00
2023-02-04T08:12:01.747Z,22.75
2023-02-04T08:17:06.541Z,25.00
2023-02-04T08:22:12.294Z,24.50
2023-02-04T08:27:17.011Z,31.25
2023-02-04T08:32:21.556Z,22.25
2023-02-04T08:37:26.103Z,26.75
2023-02-04T08:42:30.935Z,32.00
2023-02-04T08:47:36.125Z,25.75
2023-02-04T08:52:41.199Z,26.00
2023-02-04T08:57:46.157Z,27.75
2023-02-04T09:02:51.129Z,23.00
2023-02-04T09:07:56.665Z,29.00
2023-02-04T09:13:01.414Z,22.00
2023-02-04T09:18:15.522Z,20.25
2023-02-04T09:23:21.010Z,20.25
2023-02-04T09:28:25.973Z,22.75
2023-02-04T09:33:30.957Z,20.25
2023-02-04T09:38:36.081Z,19.00
2023-02-04T09:43:47.761Z,21.25
2023-02-04T09:48:52.928Z,24.25
2023-02-04T09:54:05.711Z,28.00
2023-02-04T09:59:14.947Z,36.00
2023-02-04T10:04:19.942Z,34.50
2023-02-04T10:09:24.849Z,28.00
2023-02-04T10:14:29.238Z,31.50
2023-02-04T10:19:33.885Z,39.75
2023-02-04T10:24:40.074Z,38.25
2023-02-04T10:29:45.674Z,36.25
2023-02-04T10:34:50.540Z,45.50
2023-02-04T10:39:55.392Z,41.75
2023-02-04T10:45:00.032Z,43.25
2023-02-04T10:50:07.698Z,47.00
2023-02-04T10:55:16.833Z,43.00
2023-02-04T11:00:21.765Z,46.25
2023-02-04T11:05:31.415Z,46.00
2023-02-04T11:10:37.756Z,43.25
2023-02-04T11:15:42.412Z,38.75
2023-02-04T11:20:47.441Z,50.75
2023-02-04T11:26:03.242Z,38.25
2023-02-04T11:31:15.233Z,33.25
2023-02-04T11:36:20.240Z,38.75
2023-02-04T11:41:30.757Z,34.00
2023-02-04T11:46:36.668Z,35.75
2023-02-04T11:51:42.200Z,30.50
2023-02-04T11:56:48.251Z,30.75
2023-02-04T12:01:53.200Z,28.75
2023-02-04T12:07:05.196Z,29.75
2023-02-04T12:12:12.821Z,34.75
2023-02-04T12:17:18.629Z,39.00
2023-02-04T12:22:23.587Z,34.25
2023-02-04T12:27:28.478Z,33.50
2023-02-04T12:32:33.313Z,32.25
2023-02-04T12:37:38.558Z,34.50
2023-02-04T12:42:43.552Z,28.00
2023-02-04T12:47:48.466Z,32.25
2023-02-04T12:52:57.196Z,29.25
2023-02-04T12:58:03.194Z,42.00
2023-02-04T13:03:09.990Z,30.00
2023-02-04T13:08:17.133Z,38.00
2023-02-04T13:13:22.039Z,38.25
2023-02-04T13:18:26.552Z,40.00
2023-02-04T13:23:31.047Z,36.75
2023-02-04T13:28:35.466Z,45.75
2023-02-04T13:33:40.018Z,40.75
2023-02-04T13:38:44.601Z,42.00
2023-02-04T13:43:51.069Z,42.75
2023-02-04T13:48:55.588Z,34.50
2023-02-04T13:54:02.828Z,34.25
2023-02-04T13:59:08.987Z,45.00
2023-02-04T14:04:13.530Z,33.00
2023-02-04T14:09:20.803Z,35.75
2023-02-04T14:14:25.768Z,33.00
2023-02-04T14:19:30.479Z,35.50
2023-02-04T14:24:35.052Z,34.75
2023-02-04T14:29:39.523Z,33.25
2023-02-04T14:34:44.278Z,31.50
2023-02-04T14:39:51.427Z,31.25
2023-02-04T14:44:56.626Z,31.00
2023-02-04T14:50:01.130Z,44.00
2023-02-04T14:55:05.758Z,44.25
2023-02-04T15:00:10.590Z,49.00
2023-02-04T15:05:18.566Z,46.25
2023-02-04T15:10:24.372Z,46.25
2023-02-04T15:15:29.347Z,50.50
2023-02-04T15:20:37.969Z,50.25
2023-02-04T15:25:44.134Z,50.75
2023-02-04T15:30:48.816Z,48.25
2023-02-04T15:35:53.510Z,49.00
2023-02-04T15:40:58.232Z,49.25
2023-02-04T15:46:04.774Z,51.75
2023-02-04T15:51:10.281Z,52.50
2023-02-04T15:56:14.927Z,49.25
2023-02-04T16:01:19.630Z,52.50
2023-02-04T16:06:24.942Z,51.50
2023-02-04T16:11:32.898Z,54.00
2023-02-04T16:16:38.520Z,49.75
2023-02-04T16:21:46.407Z,56.25
2023-02-04T16:26:50.999Z,52.50
2023-02-04T16:31:55.643Z,55.75
2023-02-04T16:37:00.542Z,53.75
2023-02-04T16:42:06.307Z,55.00
2023-02-04T16:47:11.103Z,49.25
2023-02-04T16:52:18.437Z,50.25
2023-02-04T16:57:23.984Z,53.00
2023-02-04T17:02:28.653Z,47.25
2023-02-04T17:07:32.950Z,55.75
2023-02-04T17:12:37.305Z,50.75
2023-02-04T17:17:41.610Z,55.25
2023-02-04T17:22:45.962Z,52.25
2023-02-04T17:27:52.608Z,51.25
2023-02-04T17:32:56.928Z,52.25
2023-02-04T17:38:02.562Z,54.75
2023-02-04T17:43:08.687Z,50.50
2023-02-04T17:48:13.010Z,54.25
2023-02-04T17:53:17.286Z,54.25
2023-02-04T17:58:25.712Z,54.75
2023-02-04T18:03:30.834Z,53.75
2023-02-04T18:08:40.182Z,55.50
2023-02-04T18:13:44.781Z,57.25
2023-02-04T18:18:49.254Z,58.50
2023-02-04T18:24:02.861Z,57.50
2023-02-04T18:29:18.380Z,57.75
2023-02-04T18:34:28.520Z,53.00
2023-02-04T18:39:34.773Z,51.00
2023-02-04T18:44:42.226Z,51.75
2023-02-04T18:49:46.327Z,56.00
2023-02-04T18:54:55.008Z,55.50
2023-02-04T19:00:20.534Z,60.25
2023-02-04T19:05:28.521Z,51.50
2023-02-04T19:10:38.421Z,50.50
2023-02-04T19:15:42.640Z,56.25
2023-02-04T19:20:46.887Z,57.25
2023-02-04T19:25:52.521Z,59.75
2023-02-04T19:31:04.393Z,58.00
2023-02-04T19:36:26.903Z,52.75
2023-02-04T19:41:35.120Z,53.50
2023-02-04T19:46:39.258Z,54.25
2023-02-04T19:51:43.339Z,53.50
2023-02-04T19:56:47.803Z,56.25
2023-02-04T20:02:00.096Z,58.50
2023-02-04T20:07:04.276Z,53.25
2023-02-04T20:12:15.527Z,57.75
2023-02-04T20:17:21.501Z,61.50
2023-02-04T20:22:41.584Z,58.75
2023-02-04T20:27:45.717Z,58.50
2023-02-04T20:32:54.115Z,56.75
2023-02-04T20:37:59.749Z,55.00
2023-02-04T20:43:25.413Z,58.75
2023-02-04T20:48:29.527Z,58.00
2023-02-04T20:53:39.566Z,66.25
2023-02-04T20:58:44.770Z,65.75
2023-02-04T21:03:50.645Z,66.00
2023-02-04T21:08:56.437Z,60.75
2023-02-04T21:14:01.082Z,66.00
2023-02-04T21:19:05.878Z,65.75
2023-02-04T21:24:10.887Z,65.50
2023-02-04T21:29:15.847Z,66.25
2023-02-04T21:34:20.502Z,64.75
2023-02-04T21:39:25.855Z,60.25
2023-02-04T21:44:30.393Z,66.75
2023-02-04T21:49:36.402Z,67.50
2023-02-04T21:54:42.108Z,62.75
2023-02-04T21:59:49.622Z,63.75
2023-02-04T22:04:54.281Z,68.00
2023-02-04T22:09:58.888Z,66.00
2023-02-04T22:15:25.471Z,64.00
2023-02-04T22:20:29.473Z,65.00
2023-02-04T22:25:33.834Z,68.75
2023-02-04T22:30:39.126Z,64.50
2023-02-04T22:35:43.364Z,65.25
2023-02-04T22:40:49.585Z,62.50
2023-02-04T22:45:53.638Z,66.00
2023-02-04T22:50:57.887Z,72.75
2023-02-04T22:56:02.190Z,63.25
2023-02-04T23:01:06.567Z,63.00
2023-02-04T23:06:10.985Z,68.25
2023-02-04T23:11:15.279Z,66.00
2023-02-04T23:16:20.834Z,56.00
2023-02-04T23:21:26.051Z,57.50
2023-02-04T23:26:30.916Z,61.75
2023-02-04T23:31:35.626Z,64.25
2023-02-04T23:36:40.360Z,63.50
2023-02-04T23:41:45.256Z,65.25
2023-02-04T23:46:49.844Z,64.50
2023-02-04T23:51:54.500Z,60.00
2023-02-04T23:56:59.043Z,59.75
